sensor_id;sensor_type;location;lat;lon;timestamp;pressure;altitude;pressure_sealevel;temperature;humidity
50790;BME280;37287;47.554;7.844;2023-08-08T00:01:18;98184.81;;;11.03;100.00
50790;BME280;37287;47.554;7.844;2023-08-08T00:04:10;98183.94;;;10.95;100.00
50790;BME280;37287;47.554;7.844;2023-08-08T00:07:00;98176.50;;;10.85;100.00
50790;BME280;37287;47.554;7.844;2023-08-08T00:09:50;98174.56;;;10.86;100.00
50790;BME280;37287;47.554;7.844;2023-08-08T00:12:43;98163.84;;;10.96;100.00
50790;BME280;37287;47.554;7.844;2023-08-08T00:15:36;98168.19;;;11.05;100.00
50790;BME280;37287;47.554;7.844;2023-08-08T00:18:26;98174.00;;;11.03;100.00
50790;BME280;37287;47.554;7.844;2023-08-08T00:21:19;98170.91;;;11.05;100.00
50790;BME280;37287;47.554;7.844;2023-08-08T00:24:10;98168.97;;;11.05;100.00
50790;BME280;37287;47.554;7.844;2023-08-08T00:27:01;98160.84;;;11.05;100.00
50790;BME280;37287;47.554;7.844;2023-08-08T00:29:52;98167.41;;;11.04;100.00
50790;BME280;37287;47.554;7.844;2023-08-08T00:32:44;98158.47;;;11.00;100.00
50790;BME280;37287;47.554;7.844;2023-08-08T00:35:35;98162.91;;;10.81;100.00
50790;BME280;37287;47.554;7.844;2023-08-08T00:38:25;98155.78;;;10.66;100.00
50790;BME280;37287;47.554;7.844;2023-08-08T00:41:16;98162.66;;;10.60;100.00
50790;BME280;37287;47.554;7.844;2023-08-08T00:44:06;98161.75;;;10.48;100.00
50790;BME280;37287;47.554;7.844;2023-08-08T00:46:57;98159.81;;;10.49;100.00
50790;BME280;37287;47.554;7.844;2023-08-08T00:49:47;98157.53;;;10.51;100.00
50790;BME280;37287;47.554;7.844;2023-08-08T00:53:04;98161.00;;;10.52;100.00
50790;BME280;37287;47.554;7.844;2023-08-08T00:56:19;98161.09;;;10.59;100.00
50790;BME280;37287;47.554;7.844;2023-08-08T00:59:35;98161.53;;;10.64;100.00
50790;BME280;37287;47.554;7.844;2023-08-08T01:02:31;98162.72;;;10.67;100.00
50790;BME280;37287;47.554;7.844;2023-08-08T01:05:06;98160.31;;;10.58;100.00
50790;BME280;37287;47.554;7.844;2023-08-08T01:08:04;98154.28;;;10.38;100.00
50790;BME280;37287;47.554;7.844;2023-08-08T01:10:56;98150.00;;;10.37;100.00
50790;BME280;37287;47.554;7.844;2023-08-08T01:13:49;98146.91;;;10.35;100.00
50790;BME280;37287;47.554;7.844;2023-08-08T01:16:40;98145.41;;;10.41;100.00
50790;BME280;37287;47.554;7.844;2023-08-08T01:19:34;98142.31;;;10.39;100.00
50790;BME280;37287;47.554;7.844;2023-08-08T01:22:41;98140.19;;;10.29;100.00
50790;BME280;37287;47.554;7.844;2023-08-08T01:25:34;98139.81;;;10.30;100.00
50790;BME280;37287;47.554;7.844;2023-08-08T01:28:24;98135.13;;;10.24;100.00
50790;BME280;37287;47.554;7.844;2023-08-08T01:31:16;98137.41;;;10.22;100.00
50790;BME280;37287;47.554;7.844;2023-08-08T01:34:06;98143.91;;;10.17;100.00
50790;BME280;37287;47.554;7.844;2023-08-08T01:37:02;98145.13;;;10.20;100.00
50790;BME280;37287;47.554;7.844;2023-08-08T01:39:34;98144.47;;;10.30;100.00
50790;BME280;37287;47.554;7.844;2023-08-08T01:42:02;98139.13;;;10.33;100.00
50790;BME280;37287;47.554;7.844;2023-08-08T01:44:56;98143.72;;;10.33;100.00
50790;BME280;37287;47.554;7.844;2023-08-08T01:47:50;98138.31;;;10.33;100.00
50790;BME280;37287;47.554;7.844;2023-08-08T01:50:23;98133.94;;;10.25;100.00
50790;BME280;37287;47.554;7.844;2023-08-08T01:52:49;98128.06;;;10.19;100.00
50790;BME280;37287;47.554;7.844;2023-08-08T01:55:40;98134.38;;;10.27;100.00
50790;BME280;37287;47.554;7.844;2023-08-08T01:58:30;98125.34;;;10.15;100.00
50790;BME280;37287;47.554;7.844;2023-08-08T02:01:21;98130.13;;;9.99;100.00
50790;BME280;37287;47.554;7.844;2023-08-08T02:04:13;98131.06;;;10.10;100.00
50790;BME280;37287;47.554;7.844;2023-08-08T02:07:05;98131.78;;;10.07;100.00
50790;BME280;37287;47.554;7.844;2023-08-08T02:09:56;98130.66;;;10.08;100.00
50790;BME280;37287;47.554;7.844;2023-08-08T02:12:47;98130.97;;;10.03;100.00
50790;BME280;37287;47.554;7.844;2023-08-08T02:15:37;98129.50;;;10.09;100.00
50790;BME280;37287;47.554;7.844;2023-08-08T02:18:27;98127.22;;;10.11;100.00
50790;BME280;37287;47.554;7.844;2023-08-08T02:21:18;98124.25;;;10.20;100.00
50790;BME280;37287;47.554;7.844;2023-08-08T02:24:10;98114.25;;;10.24;100.00
50790;BME280;37287;47.554;7.844;2023-08-08T02:27:00;98117.91;;;10.09;100.00
50790;BME280;37287;47.554;7.844;2023-08-08T02:29:50;98117.81;;;10.02;100.00
50790;BME280;37287;47.554;7.844;2023-08-08T02:32:41;98120.41;;;9.94;100.00
50790;BME280;37287;47.554;7.844;2023-08-08T02:35:32;98116.09;;;9.90;100.00
50790;BME280;37287;47.554;7.844;2023-08-08T02:38:23;98123.78;;;9.88;100.00
50790;BME280;37287;47.554;7.844;2023-08-08T02:40:56;98123.28;;;9.78;100.00
50790;BME280;37287;47.554;7.844;2023-08-08T02:43:22;98125.84;;;9.71;100.00
50790;BME280;37287;47.554;7.844;2023-08-08T02:46:15;98124.31;;;9.70;100.00
50790;BME280;37287;47.554;7.844;2023-08-08T02:49:07;98128.88;;;9.66;100.00
50790;BME280;37287;47.554;7.844;2023-08-08T02:51:58;98132.22;;;9.56;100.00
50790;BME280;37287;47.554;7.844;2023-08-08T02:54:48;98132.56;;;9.54;100.00
50790;BME280;37287;47.554;7.844;2023-08-08T02:57:41;98133.34;;;9.55;100.00
50790;BME280;37287;47.554;7.844;2023-08-08T03:00:31;98137.19;;;9.54;100.00
50790;BME280;37287;47.554;7.844;2023-08-08T03:03:21;98135.69;;;9.56;100.00
50790;BME280;37287;47.554;7.844;2023-08-08T03:06:12;98129.19;;;9.61;100.00
50790;BME280;37287;47.554;7.844;2023-08-08T03:09:09;98136.63;;;9.68;100.00
50790;BME280;37287;47.554;7.844;2023-08-08T03:23:02;98132.63;;;9.58;100.00
50790;BME280;37287;47.554;7.844;2023-08-08T03:25:53;98132.56;;;9.54;100.00
50790;BME280;37287;47.554;7.844;2023-08-08T03:28:44;98131.06;;;9.57;100.00
50790;BME280;37287;47.554;7.844;2023-08-08T03:31:36;98129.97;;;9.61;100.00
50790;BME280;37287;47.554;7.844;2023-08-08T03:34:09;98132.06;;;9.72;100.00
50790;BME280;37287;47.554;7.844;2023-08-08T03:36:59;98125.09;;;9.71;100.00
50790;BME280;37287;47.554;7.844;2023-08-08T03:39:27;98126.22;;;9.70;100.00
50790;BME280;37287;47.554;7.844;2023-08-08T03:42:19;98129.28;;;9.68;100.00
50790;BME280;37287;47.554;7.844;2023-08-08T03:45:10;98124.31;;;9.70;100.00
50790;BME280;37287;47.554;7.844;2023-08-08T03:48:00;98132.78;;;9.69;100.00
50790;BME280;37287;47.554;7.844;2023-08-08T03:50:53;98134.22;;;9.62;100.00
50790;BME280;37287;47.554;7.844;2023-08-08T03:53:45;98132.31;;;9.63;100.00
50790;BME280;37287;47.554;7.844;2023-08-08T03:56:35;98138.03;;;9.58;100.00
50790;BME280;37287;47.554;7.844;2023-08-08T03:59:27;98138.78;;;9.58;100.00
50790;BME280;37287;47.554;7.844;2023-08-08T04:02:17;98140.19;;;9.49;100.00
50790;BME280;37287;47.554;7.844;2023-08-08T04:05:08;98152.94;;;9.48;100.00
50790;BME280;37287;47.554;7.844;2023-08-08T04:07:59;98143.56;;;9.42;100.00
50790;BME280;37287;47.554;7.844;2023-08-08T04:10:50;98147.88;;;9.46;100.00
50790;BME280;37287;47.554;7.844;2023-08-08T04:13:43;98148.28;;;9.49;100.00
50790;BME280;37287;47.554;7.844;2023-08-08T04:16:34;98154.84;;;9.48;100.00
50790;BME280;37287;47.554;7.844;2023-08-08T04:19:24;98156.34;;;9.45;100.00
50790;BME280;37287;47.554;7.844;2023-08-08T04:22:17;98153.28;;;9.46;100.00
50790;BME280;37287;47.554;7.844;2023-08-08T04:25:08;98156.28;;;9.41;100.00
50790;BME280;37287;47.554;7.844;2023-08-08T04:27:58;98165.19;;;9.42;100.00
50790;BME280;37287;47.554;7.844;2023-08-08T04:30:49;98165.97;;;9.42;100.00
50790;BME280;37287;47.554;7.844;2023-08-08T04:33:19;98157.94;;;9.46;100.00
50790;BME280;37287;47.554;7.844;2023-08-08T04:35:46;98163.69;;;9.44;100.00
50790;BME280;37287;47.554;7.844;2023-08-08T04:38:39;98157.25;;;9.53;100.00
50790;BME280;37287;47.554;7.844;2023-08-08T04:41:32;98157.81;;;9.66;100.00
50790;BME280;37287;47.554;7.844;2023-08-08T04:44:24;98160.31;;;9.74;100.00
50790;BME280;37287;47.554;7.844;2023-08-08T04:47:15;98152.31;;;9.81;100.00
50790;BME280;37287;47.554;7.844;2023-08-08T04:50:07;98149.22;;;9.83;100.00
50790;BME280;37287;47.554;7.844;2023-08-08T04:52:57;98158.31;;;9.98;100.00
50790;BME280;37287;47.554;7.844;2023-08-08T04:55:48;98152.19;;;10.01;100.00
50790;BME280;37287;47.554;7.844;2023-08-08T04:58:40;98161.34;;;10.20;100.00
50790;BME280;37287;47.554;7.844;2023-08-08T05:01:31;98158.13;;;10.37;100.00
50790;BME280;37287;47.554;7.844;2023-08-08T05:04:21;98159.41;;;10.47;100.00
50790;BME280;37287;47.554;7.844;2023-08-08T05:07:12;98159.56;;;10.61;100.00
50790;BME280;37287;47.554;7.844;2023-08-08T05:10:05;98159.88;;;10.87;100.00
50790;BME280;37287;47.554;7.844;2023-08-08T05:12:58;98158.13;;;11.05;100.00
50790;BME280;37287;47.554;7.844;2023-08-08T05:15:50;98161.34;;;11.18;100.00
50790;BME280;37287;47.554;7.844;2023-08-08T05:18:40;98160.56;;;11.17;100.00
50790;BME280;37287;47.554;7.844;2023-08-08T05:21:33;98162.53;;;11.21;100.00
50790;BME280;37287;47.554;7.844;2023-08-08T05:24:27;98161.50;;;11.32;100.00
50790;BME280;37287;47.554;7.844;2023-08-08T05:27:17;98170.09;;;11.38;100.00
50790;BME280;37287;47.554;7.844;2023-08-08T05:30:09;98158.13;;;11.46;100.00
50790;BME280;37287;47.554;7.844;2023-08-08T05:33:01;98157.25;;;11.35;100.00
50790;BME280;37287;47.554;7.844;2023-08-08T05:35:54;98161.84;;;11.27;100.00
50790;BME280;37287;47.554;7.844;2023-08-08T05:38:47;98151.81;;;11.35;100.00
50790;BME280;37287;47.554;7.844;2023-08-08T05:41:38;98156.03;;;11.29;100.00
50790;BME280;37287;47.554;7.844;2023-08-08T05:44:28;98150.13;;;11.19;100.00
50790;BME280;37287;47.554;7.844;2023-08-08T05:47:19;98147.50;;;11.27;100.00
50790;BME280;37287;47.554;7.844;2023-08-08T05:49:50;98146.78;;;11.33;100.00
50790;BME280;37287;47.554;7.844;2023-08-08T05:52:20;98147.28;;;11.46;100.00
50790;BME280;37287;47.554;7.844;2023-08-08T05:54:47;98149.69;;;11.55;100.00
50790;BME280;37287;47.554;7.844;2023-08-08T05:57:14;98151.72;;;11.69;100.00
50790;BME280;37287;47.554;7.844;2023-08-08T06:00:06;98156.47;;;11.79;100.00
50790;BME280;37287;47.554;7.844;2023-08-08T06:02:59;98159.97;;;11.83;100.00
50790;BME280;37287;47.554;7.844;2023-08-08T06:05:51;98153.88;;;11.94;100.00
50790;BME280;37287;47.554;7.844;2023-08-08T06:08:41;98153.91;;;12.01;100.00
50790;BME280;37287;47.554;7.844;2023-08-08T06:11:31;98157.47;;;12.12;100.00
50790;BME280;37287;47.554;7.844;2023-08-08T06:14:22;98158.75;;;12.29;100.00
50790;BME280;37287;47.554;7.844;2023-08-08T06:17:14;98163.84;;;12.42;100.00
50790;BME280;37287;47.554;7.844;2023-08-08T06:20:05;98157.31;;;12.53;100.00
50790;BME280;37287;47.554;7.844;2023-08-08T06:23:00;98158.44;;;12.49;100.00
50790;BME280;37287;47.554;7.844;2023-08-08T06:25:50;98154.16;;;12.48;100.00
50790;BME280;37287;47.554;7.844;2023-08-08T06:28:40;98147.19;;;12.54;100.00
50790;BME280;37287;47.554;7.844;2023-08-08T06:31:32;98152.72;;;12.68;100.00
50790;BME280;37287;47.554;7.844;2023-08-08T06:34:22;98149.31;;;12.97;100.00
50790;BME280;37287;47.554;7.844;2023-08-08T06:37:14;98152.84;;;13.30;100.00
50790;BME280;37287;47.554;7.844;2023-08-08T06:40:06;98150.16;;;13.51;100.00
50790;BME280;37287;47.554;7.844;2023-08-08T06:42:57;98152.13;;;13.62;100.00
50790;BME280;37287;47.554;7.844;2023-08-08T06:45:48;98151.72;;;13.59;100.00
50790;BME280;37287;47.554;7.844;2023-08-08T06:48:38;98146.66;;;14.01;100.00
50790;BME280;37287;47.554;7.844;2023-08-08T06:51:29;98149.69;;;14.28;100.00
50790;BME280;37287;47.554;7.844;2023-08-08T06:54:22;98136.47;;;14.27;100.00
50790;BME280;37287;47.554;7.844;2023-08-08T06:57:13;98133.31;;;14.43;100.00
50790;BME280;37287;47.554;7.844;2023-08-08T06:59:41;98133.66;;;14.56;100.00
50790;BME280;37287;47.554;7.844;2023-08-08T07:02:40;98131.25;;;14.76;100.00
50790;BME280;37287;47.554;7.844;2023-08-08T07:05:10;98136.97;;;15.00;100.00
50790;BME280;37287;47.554;7.844;2023-08-08T07:08:02;98138.31;;;15.29;100.00
50790;BME280;37287;47.554;7.844;2023-08-08T07:10:56;98145.28;;;15.38;99.45
50790;BME280;37287;47.554;7.844;2023-08-08T07:13:46;98137.50;;;15.40;99.75
50790;BME280;37287;47.554;7.844;2023-08-08T07:16:37;98136.00;;;15.28;99.89
50790;BME280;37287;47.554;7.844;2023-08-08T07:19:28;98136.78;;;15.28;97.07
50790;BME280;37287;47.554;7.844;2023-08-08T07:22:19;98136.84;;;15.21;99.47
50790;BME280;37287;47.554;7.844;2023-08-08T07:25:11;98136.75;;;15.32;99.71
50790;BME280;37287;47.554;7.844;2023-08-08T07:28:01;98139.41;;;15.43;98.61
50790;BME280;37287;47.554;7.844;2023-08-08T07:30:54;98137.84;;;15.42;98.38
50790;BME280;37287;47.554;7.844;2023-08-08T07:33:46;98127.63;;;15.53;98.25
50790;BME280;37287;47.554;7.844;2023-08-08T07:36:37;98122.56;;;15.55;96.74
50790;BME280;37287;47.554;7.844;2023-08-08T07:39:27;98117.00;;;15.66;96.45
50790;BME280;37287;47.554;7.844;2023-08-08T07:42:18;98121.44;;;15.94;94.92
50790;BME280;37287;47.554;7.844;2023-08-08T07:45:08;98115.53;;;15.99;93.07
50790;BME280;37287;47.554;7.844;2023-08-08T07:48:00;98116.69;;;16.02;92.48
50790;BME280;37287;47.554;7.844;2023-08-08T07:50:50;98109.19;;;16.10;89.32
50790;BME280;37287;47.554;7.844;2023-08-08T07:53:41;98104.91;;;16.09;92.23
50790;BME280;37287;47.554;7.844;2023-08-08T07:56:21;98109.91;;;16.18;90.83
50790;BME280;37287;47.554;7.844;2023-08-08T07:58:47;98120.34;;;16.26;91.97
50790;BME280;37287;47.554;7.844;2023-08-08T08:01:44;98108.16;;;16.35;90.20
50790;BME280;37287;47.554;7.844;2023-08-08T08:04:37;98110.78;;;16.42;90.57
50790;BME280;37287;47.554;7.844;2023-08-08T08:07:31;98112.63;;;16.48;89.77
50790;BME280;37287;47.554;7.844;2023-08-08T08:10:23;98114.16;;;16.53;90.07
50790;BME280;37287;47.554;7.844;2023-08-08T08:34:44;98118.09;;;17.61;86.81
50790;BME280;37287;47.554;7.844;2023-08-08T08:37:10;98110.72;;;17.82;86.39
50790;BME280;37287;47.554;7.844;2023-08-08T08:40:02;98118.22;;;18.01;83.38
50790;BME280;37287;47.554;7.844;2023-08-08T08:42:32;98104.31;;;18.12;83.79
50790;BME280;37287;47.554;7.844;2023-08-08T08:45:24;98107.19;;;18.25;83.68
50790;BME280;37287;47.554;7.844;2023-08-08T08:48:16;98104.66;;;18.34;85.37
50790;BME280;37287;47.554;7.844;2023-08-08T08:51:06;98098.47;;;18.50;84.39
50790;BME280;37287;47.554;7.844;2023-08-08T08:53:58;98100.56;;;18.63;84.99
50790;BME280;37287;47.554;7.844;2023-08-08T08:56:50;98102.66;;;18.75;85.44
50790;BME280;37287;47.554;7.844;2023-08-08T08:59:41;98102.84;;;18.84;84.95
50790;BME280;37287;47.554;7.844;2023-08-08T09:02:34;98099.63;;;18.89;85.26
50790;BME280;37287;47.554;7.844;2023-08-08T09:05:25;98095.38;;;19.05;82.83
50790;BME280;37287;47.554;7.844;2023-08-08T09:08:18;98085.41;;;19.11;83.03
50790;BME280;37287;47.554;7.844;2023-08-08T09:11:12;98090.81;;;19.48;82.26
50790;BME280;37287;47.554;7.844;2023-08-08T09:14:04;98088.56;;;19.59;82.72
50790;BME280;37287;47.554;7.844;2023-08-08T09:16:54;98084.81;;;19.53;82.34
50790;BME280;37287;47.554;7.844;2023-08-08T09:19:47;98085.69;;;19.50;79.78
50790;BME280;37287;47.554;7.844;2023-08-08T09:22:38;98082.44;;;19.38;84.91
50790;BME280;37287;47.554;7.844;2023-08-08T09:25:28;98081.91;;;19.44;83.27
50790;BME280;37287;47.554;7.844;2023-08-08T09:28:19;98067.47;;;20.02;80.26
50790;BME280;37287;47.554;7.844;2023-08-08T09:31:11;98077.69;;;20.31;76.95
50790;BME280;37287;47.554;7.844;2023-08-08T09:34:02;98068.66;;;20.30;77.22
50790;BME280;37287;47.554;7.844;2023-08-08T09:36:54;98062.22;;;20.07;79.25
50790;BME280;37287;47.554;7.844;2023-08-08T09:39:44;98065.72;;;19.79;79.96
50790;BME280;37287;47.554;7.844;2023-08-08T09:42:35;98068.50;;;19.62;77.75
50790;BME280;37287;47.554;7.844;2023-08-08T09:45:11;98070.72;;;19.84;77.31
50790;BME280;37287;47.554;7.844;2023-08-08T09:47:40;98066.59;;;19.75;76.82
50790;BME280;37287;47.554;7.844;2023-08-08T09:50:07;98064.25;;;19.90;76.74
50790;BME280;37287;47.554;7.844;2023-08-08T09:52:58;98059.03;;;20.09;75.03
50790;BME280;37287;47.554;7.844;2023-08-08T09:55:50;98045.81;;;20.33;73.42
50790;BME280;37287;47.554;7.844;2023-08-08T09:58:42;98051.31;;;20.33;72.22
50790;BME280;37287;47.554;7.844;2023-08-08T10:01:33;98047.63;;;20.10;74.16
50790;BME280;37287;47.554;7.844;2023-08-08T10:04:02;98051.56;;;20.09;72.76
50790;BME280;37287;47.554;7.844;2023-08-08T10:06:29;98050.16;;;20.18;72.18
50790;BME280;37287;47.554;7.844;2023-08-08T10:09:23;98035.16;;;20.06;72.22
50790;BME280;37287;47.554;7.844;2023-08-08T10:12:16;98040.03;;;20.15;69.06
50790;BME280;37287;47.554;7.844;2023-08-08T10:15:08;98041.38;;;20.23;69.61
50790;BME280;37287;47.554;7.844;2023-08-08T10:18:00;98037.63;;;20.17;68.70
50790;BME280;37287;47.554;7.844;2023-08-08T10:20:51;98035.88;;;20.36;69.66
50790;BME280;37287;47.554;7.844;2023-08-08T10:23:43;98034.16;;;20.42;68.03
50790;BME280;37287;47.554;7.844;2023-08-08T10:26:51;98037.00;;;20.38;61.48
50790;BME280;37287;47.554;7.844;2023-08-08T10:29:46;98033.38;;;20.41;64.50
50790;BME280;37287;47.554;7.844;2023-08-08T10:32:44;98025.69;;;20.49;65.04
50790;BME280;37287;47.554;7.844;2023-08-08T10:35:36;98037.91;;;20.61;65.64
50790;BME280;37287;47.554;7.844;2023-08-08T10:38:08;98027.78;;;20.58;64.58
50790;BME280;37287;47.554;7.844;2023-08-08T10:41:02;98036.91;;;20.55;64.55
50790;BME280;37287;47.554;7.844;2023-08-08T10:43:56;98029.53;;;20.52;65.91
50790;BME280;37287;47.554;7.844;2023-08-08T10:46:48;98022.50;;;20.64;65.11
50790;BME280;37287;47.554;7.844;2023-08-08T10:49:34;98020.00;;;20.69;65.63
50790;BME280;37287;47.554;7.844;2023-08-08T10:52:26;98023.41;;;20.73;64.53
50790;BME280;37287;47.554;7.844;2023-08-08T10:58:13;98034.69;;;20.50;63.17
50790;BME280;37287;47.554;7.844;2023-08-08T11:00:48;98025.56;;;20.53;64.19
50790;BME280;37287;47.554;7.844;2023-08-08T11:03:18;98023.38;;;20.48;62.32
50790;BME280;37287;47.554;7.844;2023-08-08T11:05:46;98023.16;;;20.55;62.16
50790;BME280;37287;47.554;7.844;2023-08-08T11:08:40;98019.53;;;20.58;59.61
50790;BME280;37287;47.554;7.844;2023-08-08T11:11:11;98013.03;;;20.52;62.64
50790;BME280;37287;47.554;7.844;2023-08-08T11:17:03;98016.78;;;20.58;60.58
50790;BME280;37287;47.554;7.844;2023-08-08T11:19:54;98016.91;;;20.54;60.96
50790;BME280;37287;47.554;7.844;2023-08-08T11:22:21;98019.66;;;20.54;60.11
50790;BME280;37287;47.554;7.844;2023-08-08T11:25:16;98013.94;;;20.61;59.21
50790;BME280;37287;47.554;7.844;2023-08-08T11:28:06;98019.75;;;20.64;58.04
50790;BME280;37287;47.554;7.844;2023-08-08T11:30:58;98009.50;;;20.64;61.94
50790;BME280;37287;47.554;7.844;2023-08-08T11:33:49;98007.63;;;20.61;61.66
50790;BME280;37287;47.554;7.844;2023-08-08T11:36:41;98010.59;;;20.67;61.54
50790;BME280;37287;47.554;7.844;2023-08-08T11:39:33;98008.78;;;20.76;60.58
50790;BME280;37287;47.554;7.844;2023-08-08T11:42:24;98000.28;;;20.84;61.93
50790;BME280;37287;47.554;7.844;2023-08-08T11:45:01;97994.31;;;20.98;61.24
50790;BME280;37287;47.554;7.844;2023-08-08T11:47:29;97995.88;;;20.99;60.83
50790;BME280;37287;47.554;7.844;2023-08-08T11:50:25;97993.13;;;20.99;60.55
50790;BME280;37287;47.554;7.844;2023-08-08T11:53:20;97993.22;;;21.08;59.53
50790;BME280;37287;47.554;7.844;2023-08-08T11:56:10;97992.88;;;21.06;59.78
50790;BME280;37287;47.554;7.844;2023-08-08T11:59:02;97998.16;;;21.01;58.65
50790;BME280;37287;47.554;7.844;2023-08-08T12:01:52;98008.28;;;21.04;58.09
50790;BME280;37287;47.554;7.844;2023-08-08T12:04:46;97999.16;;;21.07;57.98
50790;BME280;37287;47.554;7.844;2023-08-08T12:07:37;98000.91;;;21.13;57.62
50790;BME280;37287;47.554;7.844;2023-08-08T12:10:29;97994.72;;;21.22;57.38
50790;BME280;37287;47.554;7.844;2023-08-08T12:13:23;97990.09;;;21.32;58.33
50790;BME280;37287;47.554;7.844;2023-08-08T12:16:14;97998.97;;;21.36;58.30
50790;BME280;37287;47.554;7.844;2023-08-08T12:19:08;98002.41;;;21.27;56.33
50790;BME280;37287;47.554;7.844;2023-08-08T12:22:03;97994.81;;;21.32;56.59
50790;BME280;37287;47.554;7.844;2023-08-08T12:24:53;97995.91;;;21.34;57.15
50790;BME280;37287;47.554;7.844;2023-08-08T12:27:20;97989.50;;;21.37;57.02
50790;BME280;37287;47.554;7.844;2023-08-08T12:29:47;97994.09;;;21.40;56.03
50790;BME280;37287;47.554;7.844;2023-08-08T12:32:37;97993.16;;;21.34;54.71
50790;BME280;37287;47.554;7.844;2023-08-08T12:35:28;97988.16;;;21.42;56.01
50790;BME280;37287;47.554;7.844;2023-08-08T12:38:18;97988.75;;;21.37;54.47
50790;BME280;37287;47.554;7.844;2023-08-08T12:41:10;97992.50;;;21.30;54.25
50790;BME280;37287;47.554;7.844;2023-08-08T12:44:01;97987.00;;;21.30;54.86
50790;BME280;37287;47.554;7.844;2023-08-08T12:46:55;97989.75;;;21.30;54.12
50790;BME280;37287;47.554;7.844;2023-08-08T12:49:36;97990.50;;;21.30;54.33
50790;BME280;37287;47.554;7.844;2023-08-08T12:52:06;98000.25;;;21.22;53.81
50790;BME280;37287;47.554;7.844;2023-08-08T12:54:57;98001.25;;;21.16;53.78
50790;BME280;37287;47.554;7.844;2023-08-08T12:57:47;97986.81;;;21.11;53.89
50790;BME280;37287;47.554;7.844;2023-08-08T13:00:38;97983.31;;;21.11;53.57
50790;BME280;37287;47.554;7.844;2023-08-08T13:03:30;97969.34;;;21.05;53.79
50790;BME280;37287;47.554;7.844;2023-08-08T13:06:48;97980.66;;;21.07;52.82
50790;BME280;37287;47.554;7.844;2023-08-08T13:10:04;97969.88;;;21.00;53.09
50790;BME280;37287;47.554;7.844;2023-08-08T13:12:54;97970.78;;;20.97;52.88
50790;BME280;37287;47.554;7.844;2023-08-08T13:15:46;97964.38;;;21.00;53.24
50790;BME280;37287;47.554;7.844;2023-08-08T13:18:37;97958.41;;;21.15;52.81
50790;BME280;37287;47.554;7.844;2023-08-08T13:21:28;97959.06;;;21.19;51.74
50790;BME280;37287;47.554;7.844;2023-08-08T13:23:57;97964.31;;;21.26;52.54
50790;BME280;37287;47.554;7.844;2023-08-08T13:26:24;97963.75;;;21.31;52.15
50790;BME280;37287;47.554;7.844;2023-08-08T13:29:17;97969.31;;;21.40;51.66
50790;BME280;37287;47.554;7.844;2023-08-08T13:32:09;97959.28;;;21.46;52.00
50790;BME280;37287;47.554;7.844;2023-08-08T13:42:22;97961.69;;;21.79;50.74
50790;BME280;37287;47.554;7.844;2023-08-08T13:45:14;97962.41;;;21.71;49.87
50790;BME280;37287;47.554;7.844;2023-08-08T13:47:46;97956.63;;;21.78;50.93
50790;BME280;37287;47.554;7.844;2023-08-08T13:50:37;97955.00;;;21.90;50.88
50790;BME280;37287;47.554;7.844;2023-08-08T13:53:30;97955.19;;;21.95;50.24
50790;BME280;37287;47.554;7.844;2023-08-08T13:56:21;97949.94;;;22.10;50.29
50790;BME280;37287;47.554;7.844;2023-08-08T13:59:13;97950.09;;;22.16;50.77
50790;BME280;37287;47.554;7.844;2023-08-08T14:02:04;97949.31;;;22.38;49.71
50790;BME280;37287;47.554;7.844;2023-08-08T14:04:56;97954.81;;;22.38;50.13
50790;BME280;37287;47.554;7.844;2023-08-08T14:07:47;97960.03;;;22.36;49.75
50790;BME280;37287;47.554;7.844;2023-08-08T14:10:40;97954.97;;;22.34;50.66
50790;BME280;37287;47.554;7.844;2023-08-08T14:13:32;97949.19;;;22.41;50.85
50790;BME280;37287;47.554;7.844;2023-08-08T14:16:25;97948.53;;;22.37;50.66
50790;BME280;37287;47.554;7.844;2023-08-08T14:19:16;97953.16;;;22.40;51.11
50790;BME280;37287;47.554;7.844;2023-08-08T14:21:43;97951.03;;;22.54;50.28
50790;BME280;37287;47.554;7.844;2023-08-08T14:24:10;97939.13;;;22.57;49.42
50790;BME280;37287;47.554;7.844;2023-08-08T14:27:00;97942.47;;;22.52;49.85
50790;BME280;37287;47.554;7.844;2023-08-08T14:29:52;97945.69;;;22.50;50.50
50790;BME280;37287;47.554;7.844;2023-08-08T14:32:44;97940.97;;;22.69;50.62
50790;BME280;37287;47.554;7.844;2023-08-08T14:35:35;97939.41;;;22.59;49.91
50790;BME280;37287;47.554;7.844;2023-08-08T14:38:25;97948.31;;;22.63;49.79
50790;BME280;37287;47.554;7.844;2023-08-08T14:41:16;97946.47;;;22.60;49.61
50790;BME280;37287;47.554;7.844;2023-08-08T14:44:06;97934.81;;;22.56;50.42
50790;BME280;37287;47.554;7.844;2023-08-08T14:46:57;97935.44;;;22.60;49.57
50790;BME280;37287;47.554;7.844;2023-08-08T14:49:48;97941.25;;;22.62;50.51
50790;BME280;37287;47.554;7.844;2023-08-08T14:52:21;97931.47;;;22.61;50.15
50790;BME280;37287;47.554;7.844;2023-08-08T14:54:50;97937.06;;;22.48;50.46
50790;BME280;37287;47.554;7.844;2023-08-08T14:57:41;97936.53;;;22.31;50.33
50790;BME280;37287;47.554;7.844;2023-08-08T15:00:31;97932.69;;;22.28;50.97
50790;BME280;37287;47.554;7.844;2023-08-08T15:02:58;97927.09;;;22.41;50.87
50790;BME280;37287;47.554;7.844;2023-08-08T15:05:25;97928.22;;;22.53;50.83
50790;BME280;37287;47.554;7.844;2023-08-08T15:07:52;97930.16;;;22.43;49.81
50790;BME280;37287;47.554;7.844;2023-08-08T15:10:43;97929.22;;;22.37;50.59
50790;BME280;37287;47.554;7.844;2023-08-08T15:13:33;97922.03;;;22.40;50.97
50790;BME280;37287;47.554;7.844;2023-08-08T15:16:24;97933.53;;;22.38;50.47
50790;BME280;37287;47.554;7.844;2023-08-08T15:19:15;97933.09;;;22.40;50.74
50790;BME280;37287;47.554;7.844;2023-08-08T15:22:05;97928.94;;;22.44;50.21
50790;BME280;37287;47.554;7.844;2023-08-08T15:24:57;97923.59;;;22.50;50.40
50790;BME280;37287;47.554;7.844;2023-08-08T15:27:48;97925.56;;;22.40;49.66
50790;BME280;37287;47.554;7.844;2023-08-08T15:30:18;97927.38;;;22.34;50.47
50790;BME280;37287;47.554;7.844;2023-08-08T15:32:45;97924.94;;;22.36;50.32
50790;BME280;37287;47.554;7.844;2023-08-08T15:35:36;97920.50;;;22.39;49.33